Time;durP1;ratioP1;P1;durP2;ratioP2;P2;SDS_P1;SDS_P2;PMS_P1;PMS_P2;Temp;Humidity;BMP_temperature;BMP_pressure;BME280_temperature;BME280_humidity;BME280_pressure;Samples;Min_cycle;Max_cycle;Signal;HPM_P1;HPM_P2
2021/03/28 00:01:14;;;;;;;9.55;8.80;;;22.20;99.90;;;;;;5095534;28;20024;-61
2021/03/28 00:03:56;;;;;;;8.52;8.02;;;22.40;99.90;;;;;;5095354;28;20084;-61
2021/03/28 00:06:35;;;;;;;9.43;8.68;;;22.40;99.90;;;;;;5095830;28;20052;-62
2021/03/28 00:09:26;;;;;;;8.32;7.78;;;22.60;99.90;;;;;;5095585;28;20024;-62
2021/03/28 00:12:03;;;;;;;9.68;7.95;;;22.70;99.90;;;;;;5084000;28;20432;-62
2021/03/28 00:14:49;;;;;;;7.90;7.40;;;22.50;99.90;;;;;;5096112;28;20028;-63
2021/03/28 00:17:22;;;;;;;8.10;7.50;;;22.60;99.90;;;;;;5095476;28;20481;-63
2021/03/28 00:19:52;;;;;;;7.82;7.22;;;23.00;99.90;;;;;;5095354;28;20020;-61
2021/03/28 00:22:34;;;;;;;6.88;6.43;;;22.80;99.90;;;;;;5095839;28;20024;-61
2021/03/28 00:25:14;;;;;;;6.75;5.80;;;22.90;99.90;;;;;;5095294;28;20392;-63
2021/03/28 00:27:49;;;;;;;7.25;6.80;;;23.00;99.90;;;;;;5095397;28;20103;-65
2021/03/28 00:30:25;;;;;;;7.22;6.78;;;22.60;99.90;;;;;;5095371;28;20034;-63
2021/03/28 00:33:07;;;;;;;7.07;6.45;;;22.90;99.90;;;;;;5095083;28;20055;-62
2021/03/28 00:35:51;;;;;;;6.15;5.60;;;23.30;99.90;;;;;;5095611;28;20069;-62
2021/03/28 00:38:23;;;;;;;7.25;6.65;;;23.30;99.90;;;;;;5094942;28;20038;-63
2021/03/28 00:41:16;;;;;;;6.38;5.95;;;23.30;99.90;;;;;;5094703;28;20403;-63
2021/03/28 00:44:06;;;;;;;7.07;6.53;;;23.50;99.90;;;;;;5086329;28;20111;-62
2021/03/28 00:46:48;;;;;;;6.45;6.15;;;23.60;99.90;;;;;;5093529;28;20056;-61
2021/03/28 00:49:45;;;;;;;6.40;6.00;;;23.10;99.90;;;;;;5095098;28;20020;-61
2021/03/28 00:52:16;;;;;;;7.63;7.07;;;23.40;99.90;;;;;;5073753;28;20032;-62
2021/03/28 00:54:48;;;;;;;7.00;6.40;;;23.40;99.90;;;;;;5095244;28;20373;-62
2021/03/28 00:57:35;;;;;;;5.75;5.35;;;23.50;99.90;;;;;;5094634;28;20020;-62
2021/03/28 01:00:11;;;;;;;7.10;6.60;;;23.60;99.90;;;;;;5094556;28;20055;-62
2021/03/28 01:02:55;;;;;;;6.70;6.20;;;23.60;99.90;;;;;;5094999;28;20565;-62
2021/03/28 01:05:48;;;;;;;6.70;6.30;;;23.80;99.90;;;;;;5094642;28;20020;-62
2021/03/28 01:08:24;;;;;;;6.70;6.30;;;24.00;99.90;;;;;;5094403;28;20103;-62
2021/03/28 01:11:42;;;;;;;6.50;6.00;;;24.40;99.90;;;;;;5094386;28;20027;-62
2021/03/28 01:14:30;;;;;;;6.40;6.00;;;24.20;99.90;;;;;;5049676;28;20036;-62
2021/03/28 01:17:18;;;;;;;6.63;6.13;;;24.20;99.10;;;;;;5094690;28;20091;-62
2021/03/28 01:19:51;;;;;;;6.50;6.10;;;24.20;99.90;;;;;;5094553;28;20496;-61
2021/03/28 01:22:35;;;;;;;6.90;6.30;;;24.10;98.80;;;;;;5094810;28;20146;-61
2021/03/28 01:25:18;;;;;;;6.85;6.28;;;24.40;99.70;;;;;;5094622;28;20050;-62
2021/03/28 01:27:55;;;;;;;5.97;5.40;;;24.60;99.10;;;;;;5094135;28;20027;-62
2021/03/28 01:30:42;;;;;;;7.57;6.47;;;24.40;99.30;;;;;;5093818;28;20016;-61
2021/03/28 01:33:24;;;;;;;6.32;6.00;;;24.70;98.60;;;;;;5094136;28;20043;-61
2021/03/28 01:35:58;;;;;;;6.93;6.43;;;24.30;98.20;;;;;;5093697;28;20099;-62
2021/03/28 01:38:34;;;;;;;7.15;6.50;;;24.20;99.50;;;;;;5093834;28;20016;-62
2021/03/28 01:41:23;;;;;;;6.60;6.20;;;24.70;99.70;;;;;;5092530;28;20432;-62
2021/03/28 01:44:16;;;;;;;5.90;5.50;;;24.90;99.20;;;;;;5093524;28;20016;-63
2021/03/28 01:47:08;;;;;;;6.38;5.75;;;25.40;99.80;;;;;;5094152;28;20024;-62
2021/03/28 01:49:57;;;;;;;6.07;5.32;;;25.20;98.10;;;;;;5093492;28;20019;-64
2021/03/28 01:52:41;;;;;;;5.57;5.18;;;25.00;98.00;;;;;;5093466;28;20384;-65
2021/03/28 01:55:33;;;;;;;5.93;5.43;;;24.60;97.00;;;;;;5094191;28;20017;-65
2021/03/28 01:58:00;;;;;;;5.75;5.45;;;24.70;98.30;;;;;;5093845;28;20020;-65
2021/03/28 02:00:48;;;;;;;5.97;5.40;;;25.20;98.20;;;;;;5093453;28;20030;-64
2021/03/28 02:03:18;;;;;;;5.88;5.45;;;25.00;96.40;;;;;;5093936;28;20488;-62
2021/03/28 02:05:57;;;;;;;9.98;9.13;;;25.20;95.50;;;;;;5093402;28;20441;-65
2021/03/28 02:08:28;;;;;;;6.55;5.93;;;25.50;96.00;;;;;;5093391;28;20489;-65
2021/03/28 02:10:55;;;;;;;39.10;35.25;;;25.80;96.00;;;;;;5093535;28;20027;-65
2021/03/28 02:13:46;;;;;;;27.88;25.38;;;25.90;96.40;;;;;;5093226;28;20496;-64
2021/03/28 02:16:20;;;;;;;6.15;5.75;;;25.90;97.00;;;;;;5093443;28;20035;-64
2021/03/28 02:19:20;;;;;;;36.20;32.30;;;25.10;95.80;;;;;;5092368;28;20030;-65
2021/03/28 02:21:53;;;;;;;11.27;10.27;;;25.50;95.10;;;;;;5093328;28;20031;-65
2021/03/28 02:24:38;;;;;;;9.35;8.55;;;25.40;92.70;;;;;;5093102;28;20078;-66
2021/03/28 02:27:14;;;;;;;5.82;5.40;;;25.80;93.10;;;;;;5094402;28;20016;-62
2021/03/28 02:29:56;;;;;;;6.53;6.07;;;25.40;92.10;;;;;;5097563;28;20028;-61
2021/03/28 02:32:35;;;;;;;6.20;5.70;;;25.40;92.50;;;;;;5097345;28;20020;-67
2021/03/28 02:35:15;;;;;;;11.00;9.98;;;25.20;93.20;;;;;;5097622;28;20030;-64
2021/03/28 02:37:53;;;;;;;9.00;8.10;;;25.60;94.10;;;;;;5097343;28;20016;-66
2021/03/28 02:40:40;;;;;;;10.75;9.75;;;26.10;93.50;;;;;;5097157;28;20513;-60
2021/03/28 02:43:12;;;;;;;12.38;11.13;;;26.70;97.40;;;;;;5097011;28;20020;-61
2021/03/28 02:45:45;;;;;;;15.32;14.05;;;26.80;99.00;;;;;;5097733;28;20468;-64
2021/03/28 02:48:22;;;;;;;14.27;13.07;;;26.80;98.90;;;;;;5095703;28;20016;-65
2021/03/28 02:51:07;;;;;;;9.77;8.98;;;26.90;99.60;;;;;;5096856;28;20027;-64
2021/03/28 02:54:11;;;;;;;6.75;6.15;;;26.20;99.50;;;;;;5095462;28;20024;-64
2021/03/28 02:57:16;;;;;;;9.80;8.82;;;25.70;99.70;;;;;;5095418;28;20119;-64
2021/03/28 03:00:13;;;;;;;9.90;8.90;;;24.80;99.90;;;;;;5014756;28;20025;-63
2021/03/28 03:03:17;;;;;;;9.18;8.38;;;24.60;99.90;;;;;;5096950;28;20499;-62
2021/03/28 03:06:21;;;;;;;7.75;6.93;;;23.90;99.90;;;;;;5097097;28;20020;-65
2021/03/28 03:09:09;;;;;;;7.93;7.22;;;24.10;99.90;;;;;;5096765;28;20069;-62
2021/03/28 03:12:24;;;;;;;8.50;7.70;;;25.00;99.90;;;;;;5096539;28;20020;-60
2021/03/28 03:15:18;;;;;;;18.98;17.13;;;25.70;99.90;;;;;;5079160;28;20101;-61
2021/03/28 03:18:22;;;;;;;20.63;18.77;;;25.50;99.90;;;;;;5095082;28;20047;-62
2021/03/28 03:21:27;;;;;;;9.65;8.75;;;25.50;99.90;;;;;;5096701;28;20012;-62
2021/03/28 03:24:00;;;;;;;15.38;13.95;;;25.50;99.90;;;;;;5054823;28;20486;-61
2021/03/28 03:27:08;;;;;;;16.55;14.98;;;25.40;99.90;;;;;;5096317;28;20020;-63
2021/03/28 03:29:51;;;;;;;78.85;71.30;;;24.80;99.70;;;;;;4997495;28;20109;-64
2021/03/28 03:32:45;;;;;;;9.93;9.05;;;24.40;99.90;;;;;;5093033;28;20060;-64
2021/03/28 03:35:40;;;;;;;9.95;9.00;;;24.40;99.90;;;;;;5096605;28;20383;-63
2021/03/28 03:38:40;;;;;;;13.50;12.40;;;24.00;99.90;;;;;;5095958;28;20028;-64
2021/03/28 03:41:20;;;;;;;7.68;6.97;;;24.70;99.90;;;;;;5096417;28;20044;-63
2021/03/28 03:44:11;;;;;;;6.93;6.32;;;25.40;99.90;;;;;;5096283;28;20039;-64
2021/03/28 03:46:57;;;;;;;6.75;6.28;;;25.70;99.90;;;;;;5096246;28;20027;-63
2021/03/28 03:49:53;;;;;;;6.93;6.43;;;25.30;99.90;;;;;;5096470;28;20031;-63
2021/03/28 03:52:35;;;;;;;8.00;7.30;;;24.70;99.90;;;;;;5096424;28;20419;-64
2021/03/28 03:55:21;;;;;;;7.45;6.75;;;25.00;99.90;;;;;;5096082;28;20055;-63
2021/03/28 03:57:51;;;;;;;7.28;6.60;;;25.20;99.90;;;;;;5096350;28;20015;-63
2021/03/28 04:00:32;;;;;;;6.63;6.15;;;25.80;99.90;;;;;;5095903;28;20024;-62
2021/03/28 04:03:02;;;;;;;7.43;6.90;;;26.10;99.50;;;;;;5095848;28;20052;-63
2021/03/28 04:05:41;;;;;;;7.45;6.82;;;25.70;99.70;;;;;;5095619;28;20042;-63
2021/03/28 04:08:25;;;;;;;6.90;6.20;;;25.80;99.70;;;;;;5095628;28;20538;-63
2021/03/28 04:11:04;;;;;;;6.82;6.35;;;25.60;99.90;;;;;;5094142;28;20023;-64
2021/03/28 04:13:34;;;;;;;7.80;7.20;;;25.70;99.90;;;;;;5095706;28;20020;-64
2021/03/28 04:16:13;;;;;;;7.30;6.80;;;25.50;99.90;;;;;;5093997;28;20549;-65
2021/03/28 04:19:19;;;;;;;7.15;6.55;;;25.30;99.90;;;;;;5095326;28;20043;-63
2021/03/28 04:22:07;;;;;;;7.32;6.63;;;25.00;99.90;;;;;;5095268;28;20458;-58
2021/03/28 04:24:49;;;;;;;7.72;7.10;;;24.80;99.90;;;;;;5095006;28;20382;-60
2021/03/28 04:27:54;;;;;;;6.50;6.10;;;25.20;99.90;;;;;;5095557;28;20481;-63
2021/03/28 04:30:56;;;;;;;6.30;5.72;;;25.60;99.90;;;;;;5095443;28;20020;-62
2021/03/28 04:33:42;;;;;;;6.75;6.05;;;25.40;99.90;;;;;;5089845;28;20043;-64
2021/03/28 04:36:18;;;;;;;5.93;5.32;;;24.80;99.90;;;;;;5094936;28;20120;-61
2021/03/28 04:39:07;;;;;;;7.60;7.00;;;24.30;99.90;;;;;;5095332;28;20049;-63
2021/03/28 04:41:53;;;;;;;7.20;6.60;;;24.00;99.90;;;;;;5096024;28;20024;-62
2021/03/28 04:44:41;;;;;;;7.53;6.93;;;24.40;99.90;;;;;;5095344;28;20032;-61
2021/03/28 04:47:08;;;;;;;6.60;6.10;;;24.80;99.90;;;;;;5093415;28;20020;-61
2021/03/28 04:49:56;;;;;;;6.10;5.60;;;24.90;99.90;;;;;;5094207;28;20033;-61
2021/03/28 04:52:45;;;;;;;6.18;5.70;;;24.60;99.90;;;;;;5094574;28;20035;-63
2021/03/28 04:55:42;;;;;;;5.75;5.25;;;25.00;99.90;;;;;;5094925;28;20476;-62
2021/03/28 04:58:24;;;;;;;6.15;5.75;;;25.30;99.90;;;;;;5094509;28;20072;-61
2021/03/28 05:01:31;;;;;;;6.65;5.80;;;25.40;99.90;;;;;;5094709;28;20024;-61
2021/03/28 05:03:59;;;;;;;6.20;5.70;;;25.20;99.80;;;;;;5094238;28;20024;-62
2021/03/28 05:06:43;;;;;;;6.32;5.93;;;25.20;99.90;;;;;;5094906;28;20031;-61
2021/03/28 05:09:38;;;;;;;9.27;6.30;;;25.30;99.80;;;;;;5094580;28;20028;-62
2021/03/28 05:12:23;;;;;;;6.38;5.88;;;25.40;99.90;;;;;;5094688;28;20495;-64
2021/03/28 05:15:32;;;;;;;7.25;6.00;;;25.40;99.50;;;;;;5094628;28;20024;-62
2021/03/28 05:18:37;;;;;;;7.32;6.00;;;25.20;98.80;;;;;;5084386;28;20039;-60
2021/03/28 05:21:21;;;;;;;6.18;5.57;;;24.90;99.00;;;;;;5063555;28;20396;-63
2021/03/28 05:24:25;;;;;;;5.93;5.50;;;24.90;99.40;;;;;;5094006;28;20103;-60
2021/03/28 05:27:13;;;;;;;5.90;5.50;;;25.00;99.80;;;;;;5094584;28;20403;-59
2021/03/28 05:30:17;;;;;;;6.45;5.85;;;24.80;99.70;;;;;;5094302;28;20023;-59
2021/03/28 05:32:47;;;;;;;7.13;5.78;;;24.90;99.90;;;;;;5092472;28;20073;-65
2021/03/28 05:35:44;;;;;;;5.72;5.32;;;24.90;99.70;;;;;;5093810;28;20031;-64
2021/03/28 05:38:12;;;;;;;6.18;5.78;;;24.80;99.30;;;;;;5094083;28;20399;-62
2021/03/28 05:40:42;;;;;;;6.55;5.40;;;24.40;99.90;;;;;;5092150;28;20043;-63
2021/03/28 05:43:46;;;;;;;5.43;4.95;;;24.30;99.70;;;;;;5093597;28;20024;-63
2021/03/28 05:46:42;;;;;;;5.65;5.03;;;24.40;99.80;;;;;;5094210;28;20100;-63
2021/03/28 05:49:42;;;;;;;7.00;5.03;;;24.60;99.70;;;;;;5093932;28;20031;-62
2021/03/28 05:52:46;;;;;;;5.82;5.03;;;24.50;99.90;;;;;;5093750;28;20069;-63
2021/03/28 05:55:37;;;;;;;5.20;4.90;;;24.30;99.90;;;;;;5094049;28;20525;-63
2021/03/28 05:58:24;;;;;;;5.45;5.00;;;24.20;99.90;;;;;;5093325;28;20031;-62
2021/03/28 06:01:28;;;;;;;5.38;4.95;;;23.80;99.90;;;;;;5093444;28;20028;-63
2021/03/28 06:04:32;;;;;;;4.88;4.55;;;23.40;99.90;;;;;;5093242;28;20051;-63
2021/03/28 06:07:39;;;;;;;5.28;4.80;;;23.10;99.90;;;;;;5093029;28;20366;-62
2021/03/28 06:10:33;;;;;;;5.60;5.20;;;23.10;99.90;;;;;;5063441;28;20035;-63
2021/03/28 06:13:15;;;;;;;6.32;5.22;;;23.30;99.90;;;;;;5093471;28;20476;-64
2021/03/28 06:15:59;;;;;;;5.78;5.30;;;23.60;99.90;;;;;;5093322;28;20027;-60
2021/03/28 06:19:02;;;;;;;7.22;6.90;;;23.80;99.90;;;;;;5093425;28;20051;-61
2021/03/28 06:22:14;;;;;;;8.30;7.63;;;23.60;99.00;;;;;;5093445;28;20020;-61
2021/03/28 06:24:53;;;;;;;5.80;5.40;;;23.70;99.30;;;;;;5092966;28;20425;-65
2021/03/28 06:27:58;;;;;;;6.18;5.10;;;23.60;99.10;;;;;;5093538;28;20526;-58
2021/03/28 06:30:49;;;;;;;5.30;4.90;;;23.60;99.40;;;;;;5011347;28;20030;-63
2021/03/28 06:33:31;;;;;;;5.57;4.93;;;23.60;99.20;;;;;;5011005;28;20037;-60
2021/03/28 06:36:16;;;;;;;5.65;5.03;;;23.70;98.90;;;;;;5073017;28;20040;-64
2021/03/28 06:39:19;;;;;;;6.68;5.68;;;23.50;98.60;;;;;;5093119;28;20020;-63
2021/03/28 06:42:00;;;;;;;5.45;5.10;;;23.30;99.90;;;;;;5093147;28;20035;-65
2021/03/28 06:44:48;;;;;;;5.78;5.30;;;23.40;99.90;;;;;;5092528;28;20035;-62
2021/03/28 06:47:37;;;;;;;6.53;5.75;;;23.30;99.90;;;;;;5093209;28;20025;-64
2021/03/28 06:50:40;;;;;;;6.78;6.28;;;23.20;99.90;;;;;;5093114;28;20044;-64
2021/03/28 06:53:27;;;;;;;6.85;6.32;;;23.10;99.90;;;;;;5092875;28;20016;-65
2021/03/28 06:56:22;;;;;;;8.27;7.10;;;23.00;99.90;;;;;;5091500;28;20040;-64
2021/03/28 06:59:26;;;;;;;7.38;6.78;;;22.90;99.90;;;;;;5091631;28;20031;-63
2021/03/28 07:02:28;;;;;;;8.80;6.43;;;22.60;99.90;;;;;;5092824;28;20436;-68
2021/03/28 07:05:07;;;;;;;7.03;6.45;;;22.60;99.90;;;;;;5092205;28;20060;-69
2021/03/28 07:07:53;;;;;;;7.47;6.10;;;22.60;99.90;;;;;;5093277;28;20346;-62
2021/03/28 07:10:52;;;;;;;6.47;5.90;;;22.50;99.90;;;;;;5091549;28;20024;-66
2021/03/28 07:13:35;;;;;;;7.03;6.32;;;22.40;99.90;;;;;;5083239;28;20100;-67
2021/03/28 07:16:17;;;;;;;7.72;7.10;;;22.30;99.90;;;;;;5096857;28;20024;-67
2021/03/28 07:19:06;;;;;;;7.68;7.00;;;22.20;99.90;;;;;;5096967;28;20484;-68
2021/03/28 07:21:51;;;;;;;7.82;7.30;;;22.10;99.90;;;;;;5096156;28;20404;-68
2021/03/28 07:25:02;;;;;;;8.00;7.25;;;21.90;99.90;;;;;;5096661;28;20051;-67
2021/03/28 07:27:48;;;;;;;7.57;6.82;;;21.90;99.90;;;;;;5096542;28;20012;-67
2021/03/28 07:30:30;;;;;;;7.72;7.10;;;21.70;99.90;;;;;;5096363;28;20029;-67
2021/03/28 07:33:31;;;;;;;8.48;7.70;;;21.60;99.90;;;;;;5096516;28;20020;-66
2021/03/28 07:36:20;;;;;;;7.35;6.93;;;21.50;99.90;;;;;;5095988;28;20430;-66
2021/03/28 07:39:03;;;;;;;7.18;6.72;;;21.40;99.90;;;;;;5096484;28;20023;-67
2021/03/28 07:41:49;;;;;;;7.25;6.65;;;21.40;99.90;;;;;;5096194;28;20016;-66
2021/03/28 07:44:46;;;;;;;6.65;6.00;;;21.40;99.90;;;;;;5095726;28;20089;-67
2021/03/28 07:47:37;;;;;;;7.03;6.43;;;21.30;99.90;;;;;;5096433;28;20017;-67
2021/03/28 07:50:28;;;;;;;7.63;7.10;;;21.30;99.90;;;;;;5096014;28;20103;-66
2021/03/28 07:53:17;;;;;;;7.32;6.72;;;21.20;99.90;;;;;;5095771;28;20021;-67
2021/03/28 07:56:31;;;;;;;6.63;6.10;;;21.20;99.90;;;;;;5095920;28;20016;-67
2021/03/28 07:59:16;;;;;;;6.80;6.20;;;21.10;99.90;;;;;;5023694;28;20041;-66
2021/03/28 08:02:11;;;;;;;7.40;6.70;;;21.00;99.90;;;;;;5095624;28;20483;-68
2021/03/28 08:05:16;;;;;;;7.72;7.00;;;21.00;99.90;;;;;;5095749;28;20024;-65
2021/03/28 08:07:56;;;;;;;7.10;6.50;;;21.00;99.90;;;;;;5066564;28;20498;-67
2021/03/28 08:10:31;;;;;;;7.05;6.45;;;20.90;99.90;;;;;;5095437;28;20058;-67
2021/03/28 08:13:36;;;;;;;8.95;7.03;;;20.80;99.90;;;;;;5095415;28;20445;-67
2021/03/28 08:16:27;;;;;;;8.00;7.20;;;20.80;99.90;;;;;;5095537;28;20024;-66
2021/03/28 08:19:00;;;;;;;7.97;7.07;;;20.70;99.90;;;;;;5095272;28;20020;-66
2021/03/28 08:21:46;;;;;;;7.45;6.72;;;20.60;99.90;;;;;;5094067;28;20384;-65
2021/03/28 08:24:52;;;;;;;7.93;7.13;;;20.50;99.90;;;;;;5095373;28;20034;-66
2021/03/28 08:27:25;;;;;;;7.95;7.13;;;20.50;99.90;;;;;;5095476;28;20023;-67
2021/03/28 08:30:18;;;;;;;10.30;7.22;;;20.50;99.90;;;;;;5094947;28;20056;-67
2021/03/28 08:32:54;;;;;;;8.45;7.65;;;20.50;99.90;;;;;;5094995;28;20024;-66
2021/03/28 08:35:36;;;;;;;7.72;6.93;;;20.50;99.90;;;;;;5095060;28;20473;-67
2021/03/28 08:38:44;;;;;;;8.77;7.32;;;20.50;99.90;;;;;;5095547;28;20085;-67
2021/03/28 08:41:21;;;;;;;8.98;8.18;;;20.40;99.90;;;;;;5067620;28;20050;-66
2021/03/28 08:44:11;;;;;;;8.00;7.50;;;20.40;99.90;;;;;;5094706;28;20140;-67
2021/03/28 08:47:19;;;;;;;9.18;7.97;;;20.40;99.90;;;;;;5093436;28;20038;-63
2021/03/28 08:50:06;;;;;;;8.90;8.10;;;20.30;99.90;;;;;;5030084;28;20028;-64
2021/03/28 08:53:07;;;;;;;9.80;7.95;;;20.30;99.90;;;;;;5095305;28;20024;-64
2021/03/28 08:56:11;;;;;;;8.55;7.70;;;20.20;99.90;;;;;;5095135;28;20024;-63
2021/03/28 08:58:54;;;;;;;9.13;7.90;;;20.20;99.90;;;;;;5094845;28;20149;-64
2021/03/28 09:01:47;;;;;;;9.20;8.00;;;20.10;99.90;;;;;;5094409;28;20028;-63
2021/03/28 09:04:30;;;;;;;9.25;8.38;;;20.10;99.90;;;;;;5094267;28;20028;-63
2021/03/28 09:07:13;;;;;;;7.60;6.90;;;20.00;99.90;;;;;;5094431;28;20047;-63
2021/03/28 09:09:43;;;;;;;7.20;6.80;;;20.00;99.90;;;;;;5094955;28;20122;-63
2021/03/28 09:12:19;;;;;;;9.07;7.65;;;19.90;99.90;;;;;;5094490;28;20038;-62
2021/03/28 09:15:09;;;;;;;8.90;8.15;;;19.90;99.90;;;;;;5094487;28;20024;-63
2021/03/28 09:17:51;;;;;;;7.85;7.35;;;19.80;99.90;;;;;;5094532;28;20036;-64
2021/03/28 09:20:45;;;;;;;8.80;8.00;;;19.80;99.90;;;;;;5093968;28;20028;-63
2021/03/28 09:23:43;;;;;;;8.63;7.97;;;19.80;99.90;;;;;;5062697;28;20032;-63
2021/03/28 09:26:30;;;;;;;9.10;8.50;;;19.80;99.90;;;;;;5093943;28;20146;-63
2021/03/28 09:29:35;;;;;;;9.15;8.50;;;19.90;99.90;;;;;;5094161;28;20039;-64
2021/03/28 09:32:42;;;;;;;9.57;8.82;;;19.80;99.90;;;;;;5090504;28;20422;-63
2021/03/28 09:35:40;;;;;;;10.27;9.32;;;19.80;99.90;;;;;;5093850;28;20024;-63
2021/03/28 09:38:33;;;;;;;10.30;9.35;;;19.70;99.90;;;;;;5093997;28;20074;-63
2021/03/28 09:41:36;;;;;;;9.93;9.00;;;19.70;99.90;;;;;;5093941;28;20107;-63
2021/03/28 09:44:18;;;;;;;9.93;9.23;;;19.70;99.90;;;;;;5093693;28;20103;-62
2021/03/28 09:46:51;;;;;;;11.18;9.30;;;19.80;99.90;;;;;;5094073;28;20020;-63
2021/03/28 09:49:42;;;;;;;10.38;9.38;;;19.80;99.90;;;;;;5094132;28;20016;-63
2021/03/28 09:52:14;;;;;;;;;;;19.70;99.90;;;;;;5094009;28;20040;-64
2021/03/28 09:55:20;;;;;;;9.40;8.60;;;19.70;99.90;;;;;;5094026;28;19911;-63
2021/03/28 09:58:05;;;;;;;9.13;8.30;;;19.70;99.90;;;;;;5069781;28;20161;-63
2021/03/28 10:00:56;;;;;;;9.73;8.77;;;19.70;99.90;;;;;;5093422;28;20020;-63
2021/03/28 10:03:32;;;;;;;9.13;8.32;;;19.70;99.90;;;;;;5093460;28;20031;-63
2021/03/28 10:06:09;;;;;;;9.30;8.30;;;19.70;99.90;;;;;;5093691;28;20020;-63
2021/03/28 10:08:44;;;;;;;9.63;8.70;;;19.70;99.90;;;;;;5092058;28;20539;-64
2021/03/28 10:11:29;;;;;;;9.55;8.63;;;19.60;99.90;;;;;;5093453;28;20472;-64
2021/03/28 10:14:16;;;;;;;8.82;8.35;;;19.60;99.90;;;;;;5093641;28;20100;-64
2021/03/28 10:17:02;;;;;;;9.38;8.70;;;19.50;99.90;;;;;;5093868;28;20047;-64
2021/03/28 10:19:39;;;;;;;8.80;8.10;;;19.50;99.90;;;;;;5093590;28;20024;-63
2021/03/28 10:22:30;;;;;;;9.30;8.60;;;19.50;99.90;;;;;;5093219;28;20032;-62
2021/03/28 10:25:29;;;;;;;8.45;7.90;;;19.60;99.90;;;;;;5093354;28;20405;-63
2021/03/28 10:28:20;;;;;;;9.20;8.50;;;19.60;99.90;;;;;;5093076;28;20056;-62
2021/03/28 10:31:16;;;;;;;9.13;8.50;;;19.50;99.90;;;;;;5093077;28;20028;-62
2021/03/28 10:34:19;;;;;;;9.90;9.02;;;19.50;99.90;;;;;;5084543;28;20044;-63
2021/03/28 10:37:29;;;;;;;9.15;8.27;;;19.50;99.90;;;;;;5070182;28;20458;-63
2021/03/28 10:40:28;;;;;;;8.60;8.00;;;19.50;99.90;;;;;;5092764;28;20443;-63
2021/03/28 10:43:19;;;;;;;9.30;8.60;;;19.60;99.90;;;;;;5051809;28;20036;-63
2021/03/28 10:46:08;;;;;;;9.90;8.98;;;19.60;99.90;;;;;;5093094;28;20024;-62
2021/03/28 10:48:48;;;;;;;8.77;8.18;;;19.60;99.90;;;;;;5094931;28;20020;-63
2021/03/28 10:52:07;;;;;;;9.77;8.88;;;19.50;99.90;;;;;;5096952;28;20059;-62
2021/03/28 10:54:56;;;;;;;9.70;9.10;;;19.50;99.90;;;;;;5097070;28;20024;-63
2021/03/28 10:57:41;;;;;;;10.13;9.35;;;19.40;99.90;;;;;;5096976;28;20031;-63
2021/03/28 11:00:46;;;;;;;9.60;9.00;;;19.50;99.90;;;;;;5097475;28;20090;-63
2021/03/28 11:03:50;;;;;;;10.65;9.85;;;19.40;99.90;;;;;;5096992;28;20032;-63
2021/03/28 11:06:39;;;;;;;10.13;9.52;;;19.40;99.90;;;;;;5097106;28;20099;-63
2021/03/28 11:09:31;;;;;;;10.38;9.70;;;19.40;99.90;;;;;;5097017;28;20023;-63
2021/03/28 11:12:31;;;;;;;10.63;9.93;;;19.40;99.90;;;;;;5096965;28;20051;-63
2021/03/28 11:15:28;;;;;;;10.93;10.13;;;19.30;99.90;;;;;;5096919;28;20036;-63
2021/03/28 11:18:07;;;;;;;11.43;10.48;;;19.40;99.90;;;;;;5096557;28;20025;-62
2021/03/28 11:20:47;;;;;;;10.82;9.98;;;19.40;99.90;;;;;;5097096;28;20069;-63
2021/03/28 11:23:32;;;;;;;9.98;9.35;;;19.40;99.90;;;;;;5096361;28;20035;-63
2021/03/28 11:26:23;;;;;;;10.07;9.43;;;19.40;99.90;;;;;;5096958;28;20101;-63
2021/03/28 11:29:08;;;;;;;;;;;19.40;99.90;;;;;;5095831;28;20020;-63
2021/03/28 11:31:57;;;;;;;10.70;9.88;;;19.40;99.90;;;;;;5096289;28;19918;-63
2021/03/28 11:34:39;;;;;;;10.80;10.10;;;19.30;99.90;;;;;;5094882;28;20035;-65
2021/03/28 11:37:44;;;;;;;10.93;10.00;;;19.30;99.90;;;;;;5096253;28;20016;-63
2021/03/28 11:40:37;;;;;;;11.15;10.35;;;19.30;99.90;;;;;;5096110;28;20076;-63
2021/03/28 11:43:05;;;;;;;11.50;10.70;;;19.20;99.90;;;;;;5096050;28;20016;-62
2021/03/28 11:45:38;;;;;;;11.60;10.90;;;19.20;99.90;;;;;;5096264;28;20058;-63
2021/03/28 11:48:39;;;;;;;11.30;10.60;;;19.20;99.90;;;;;;5096549;28;20016;-63
2021/03/28 11:51:23;;;;;;;11.50;10.80;;;19.20;99.90;;;;;;5095714;28;20036;-64
2021/03/28 11:54:12;;;;;;;12.18;11.35;;;19.10;99.90;;;;;;5096266;28;20024;-63
2021/03/28 11:57:03;;;;;;;13.20;12.20;;;19.10;99.90;;;;;;5096128;28;20020;-63
2021/03/28 11:59:54;;;;;;;14.20;13.10;;;19.10;99.90;;;;;;5095760;28;20354;-63
2021/03/28 12:02:28;;;;;;;14.18;13.27;;;19.00;99.90;;;;;;5095760;28;20072;-63
2021/03/28 12:04:58;;;;;;;14.15;13.23;;;19.10;99.90;;;;;;5095444;28;20028;-63
2021/03/28 12:07:34;;;;;;;13.98;13.10;;;19.10;99.90;;;;;;5095674;28;20477;-63
2021/03/28 12:10:02;;;;;;;14.75;13.75;;;19.00;99.90;;;;;;5095561;28;20020;-61
2021/03/28 12:12:45;;;;;;;15.85;14.90;;;19.00;99.90;;;;;;5095470;28;20134;-62
2021/03/28 12:15:43;;;;;;;16.60;15.70;;;19.00;99.90;;;;;;5094177;28;20061;-63
2021/03/28 12:21:09;;;;;;;19.35;18.23;;;19.00;99.90;;;;;;5095660;28;20024;-62
2021/03/28 12:24:07;;;;;;;21.30;19.92;;;18.90;99.90;;;;;;5095163;28;20020;-62
2021/03/28 12:26:37;;;;;;;21.75;20.58;;;18.90;99.90;;;;;;5093367;28;20036;-62
2021/03/28 12:29:13;;;;;;;25.50;23.92;;;18.80;99.90;;;;;;5095178;28;20020;-62
2021/03/28 12:31:47;;;;;;;25.77;24.38;;;18.80;99.90;;;;;;5093758;28;20104;-62
2021/03/28 12:34:40;;;;;;;27.35;25.83;;;18.80;99.90;;;;;;5093774;28;20055;-61
2021/03/28 12:37:10;;;;;;;28.73;27.23;;;18.70;99.90;;;;;;5095113;28;20035;-63
2021/03/28 12:39:37;;;;;;;31.90;30.40;;;18.70;99.90;;;;;;5093475;28;20093;-63
2021/03/28 12:42:35;;;;;;;33.30;31.45;;;18.70;99.90;;;;;;5095457;28;20377;-62
2021/03/28 12:45:08;;;;;;;35.33;33.53;;;18.60;99.90;;;;;;5094175;28;20418;-62
2021/03/28 12:47:51;;;;;;;35.22;33.53;;;18.70;99.90;;;;;;5095013;28;20024;-62
2021/03/28 12:50:18;;;;;;;37.22;35.33;;;18.70;99.90;;;;;;5094719;28;20020;-62
2021/03/28 12:53:13;;;;;;;39.30;37.30;;;18.70;99.90;;;;;;5095259;28;20450;-63
2021/03/28 12:55:51;;;;;;;39.78;37.80;;;18.70;99.90;;;;;;5087385;28;20036;-62
2021/03/28 12:58:26;;;;;;;41.72;39.60;;;18.70;99.90;;;;;;5094658;28;20031;-62
2021/03/28 13:01:33;;;;;;;42.47;40.15;;;18.70;99.90;;;;;;5094436;28;20023;-62
2021/03/28 13:04:18;;;;;;;43.42;41.08;;;18.70;99.90;;;;;;5049947;28;20047;-63
2021/03/28 13:06:49;;;;;;;43.58;41.45;;;18.70;99.90;;;;;;5094923;28;20013;-63
2021/03/28 13:09:19;;;;;;;43.70;41.28;;;18.70;99.90;;;;;;5094408;28;20431;-63
2021/03/28 13:12:13;;;;;;;44.03;41.78;;;18.70;99.90;;;;;;5093602;28;20024;-63
2021/03/28 13:14:46;;;;;;;44.33;41.70;;;18.80;99.90;;;;;;5094183;28;20412;-62
2021/03/28 13:17:19;;;;;;;43.35;40.92;;;18.70;99.90;;;;;;5094238;28;20026;-62
2021/03/28 13:19:49;;;;;;;45.50;42.92;;;18.70;99.90;;;;;;5094483;28;20020;-62
2021/03/28 13:22:25;;;;;;;;;;;18.70;99.90;;;;;;5094708;28;20102;-63
2021/03/28 13:25:16;;;;;;;45.58;43.28;;;18.70;99.90;;;;;;5094353;28;19907;-62
2021/03/28 13:28:00;;;;;;;46.55;44.25;;;18.60;99.90;;;;;;5094682;28;20126;-62
2021/03/28 13:30:50;;;;;;;48.33;45.55;;;18.70;99.90;;;;;;5093910;28;20035;-63
2021/03/28 13:33:32;;;;;;;50.33;47.05;;;18.60;99.90;;;;;;5093845;28;20444;-63
2021/03/28 13:36:09;;;;;;;50.83;48.25;;;18.60;99.90;;;;;;5094032;28;20028;-63
2021/03/28 13:38:37;;;;;;;52.85;50.15;;;18.70;99.90;;;;;;5093635;28;20051;-62
2021/03/28 13:41:25;;;;;;;51.97;49.22;;;18.70;99.90;;;;;;5093889;28;20028;-62
2021/03/28 13:44:22;;;;;;;51.05;48.15;;;18.70;99.90;;;;;;5093772;28;20038;-62
2021/03/28 13:46:54;;;;;;;51.15;48.40;;;18.70;99.90;;;;;;5093658;28;20032;-63
2021/03/28 13:49:40;;;;;;;52.03;49.33;;;18.70;99.90;;;;;;5093967;28;20024;-62
2021/03/28 13:52:23;;;;;;;51.78;48.92;;;18.70;99.90;;;;;;5093616;28;20055;-64
2021/03/28 13:55:14;;;;;;;52.90;49.97;;;18.70;99.90;;;;;;5093684;28;20034;-63
2021/03/28 13:57:42;;;;;;;51.80;48.95;;;18.70;99.90;;;;;;5093637;28;20032;-63
2021/03/28 14:00:36;;;;;;;50.55;47.95;;;18.70;99.90;;;;;;5093571;28;20052;-63
2021/03/28 14:03:26;;;;;;;52.58;49.90;;;18.70;99.90;;;;;;5093503;28;20380;-63
2021/03/28 14:05:54;;;;;;;53.40;50.60;;;18.80;99.90;;;;;;5094057;28;20029;-63
2021/03/28 14:08:26;;;;;;;53.03;50.08;;;18.80;99.90;;;;;;5093337;28;20069;-63
2021/03/28 14:11:00;;;;;;;51.30;48.42;;;18.80;99.90;;;;;;5093781;28;20024;-63
2021/03/28 14:13:37;;;;;;;52.40;49.40;;;18.80;99.90;;;;;;5093402;28;20024;-64
2021/03/28 14:16:04;;;;;;;52.38;49.47;;;18.80;99.90;;;;;;5093240;28;20138;-64
2021/03/28 14:18:48;;;;;;;52.85;50.05;;;18.80;99.90;;;;;;5091948;28;20024;-63
2021/03/28 14:21:30;;;;;;;53.10;50.30;;;18.80;99.90;;;;;;5093280;28;20100;-64
2021/03/28 14:24:19;;;;;;;51.80;49.00;;;18.80;99.90;;;;;;5093198;28;20119;-64
2021/03/28 14:27:05;;;;;;;52.13;49.15;;;18.80;99.90;;;;;;5093138;28;20028;-64